createdAt,value
2023-04-09T00:01:04.329Z,9.43
2023-04-09T00:03:31.861Z,8.93
2023-04-09T00:06:01.198Z,14.80
2023-04-09T00:08:28.583Z,17.58
2023-04-09T00:10:57.312Z,13.90
2023-04-09T00:13:35.373Z,23.83
2023-04-09T00:16:06.471Z,9.63
2023-04-09T00:18:33.789Z,14.35
2023-04-09T00:21:02.613Z,13.55
2023-04-09T00:23:29.949Z,15.10
2023-04-09T00:25:57.451Z,10.85
2023-04-09T00:28:24.787Z,15.18
2023-04-09T00:30:52.073Z,10.02
2023-04-09T00:33:19.586Z,12.82
2023-04-09T00:35:47.029Z,12.60
2023-04-09T00:38:16.484Z,13.15
2023-04-09T00:40:44.175Z,16.05
2023-04-09T00:43:12.172Z,16.55
2023-04-09T00:45:39.769Z,12.07
2023-04-09T00:48:07.504Z,8.63
2023-04-09T00:50:34.863Z,11.88
2023-04-09T00:53:02.163Z,15.18
2023-04-09T00:55:31.601Z,16.67
2023-04-09T00:57:58.891Z,12.50
2023-04-09T01:00:27.774Z,10.15
2023-04-09T01:02:57.732Z,16.23
2023-04-09T01:05:31.499Z,15.93
2023-04-09T01:08:05.388Z,12.77
2023-04-09T01:10:38.472Z,17.95
2023-04-09T01:13:12.750Z,10.30
2023-04-09T01:15:47.323Z,12.75
2023-04-09T01:18:22.806Z,13.13
2023-04-09T01:20:57.196Z,15.98
2023-04-09T01:23:35.532Z,15.90
2023-04-09T01:26:11.000Z,12.95
2023-04-09T01:28:50.906Z,15.65
2023-04-09T01:31:20.453Z,13.40
2023-04-09T01:33:48.106Z,14.85
2023-04-09T01:36:16.659Z,11.77
2023-04-09T01:38:45.918Z,13.20
2023-04-09T01:41:17.532Z,13.82
2023-04-09T01:43:48.476Z,10.70
2023-04-09T01:46:16.800Z,11.70
2023-04-09T01:48:44.230Z,10.15
2023-04-09T01:51:14.246Z,10.18
2023-04-09T01:53:42.339Z,14.13
2023-04-09T01:56:10.208Z,9.20
2023-04-09T01:58:37.750Z,12.15
2023-04-09T02:01:12.897Z,14.70
2023-04-09T02:03:45.417Z,13.70
2023-04-09T02:06:16.280Z,10.00
2023-04-09T02:08:46.561Z,9.15
2023-04-09T02:11:15.396Z,11.90
2023-04-09T02:13:44.401Z,14.18
2023-04-09T02:16:34.180Z,13.55
2023-04-09T02:19:01.565Z,7.95
2023-04-09T02:21:29.753Z,16.85
2023-04-09T02:23:57.058Z,12.48
2023-04-09T02:26:25.111Z,13.57
2023-04-09T02:28:52.473Z,17.80
2023-04-09T02:31:19.809Z,11.25
2023-04-09T02:33:48.604Z,14.13
2023-04-09T02:36:16.205Z,10.38
2023-04-09T02:38:43.774Z,11.15
2023-04-09T02:41:11.286Z,11.88
2023-04-09T02:43:38.602Z,13.48
2023-04-09T02:46:07.868Z,14.68
2023-04-09T02:48:36.057Z,16.85
2023-04-09T02:51:08.204Z,9.27
2023-04-09T02:53:35.692Z,8.93
2023-04-09T02:56:03.028Z,10.43
2023-04-09T02:58:30.327Z,12.30
2023-04-09T03:00:57.569Z,9.88
2023-04-09T03:03:25.064Z,12.20
2023-04-09T03:05:52.477Z,22.73
2023-04-09T03:08:21.188Z,10.85
2023-04-09T03:10:48.652Z,9.98
2023-04-09T03:13:16.160Z,11.18
2023-04-09T03:15:43.719Z,10.82
2023-04-09T03:18:10.993Z,14.60
2023-04-09T03:20:39.339Z,14.63
2023-04-09T03:23:09.235Z,13.40
2023-04-09T03:25:42.788Z,12.27
2023-04-09T03:28:16.417Z,13.10
2023-04-09T03:30:50.700Z,13.35
2023-04-09T03:33:19.716Z,18.52
2023-04-09T03:35:53.645Z,14.73
2023-04-09T03:38:33.743Z,11.25
2023-04-09T03:41:07.197Z,9.45
2023-04-09T03:43:34.756Z,13.10
2023-04-09T03:46:02.356Z,19.17
2023-04-09T03:48:30.479Z,14.90
2023-04-09T03:50:58.704Z,11.50
2023-04-09T03:53:34.337Z,12.30
2023-04-09T03:56:07.699Z,12.98
2023-04-09T03:58:36.423Z,11.68
2023-04-09T04:01:04.183Z,11.27
2023-04-09T04:03:50.874Z,14.55
2023-04-09T04:06:22.430Z,16.08
2023-04-09T04:09:01.723Z,11.60
2023-04-09T04:11:41.407Z,11.90
2023-04-09T04:14:08.969Z,15.00
2023-04-09T04:16:36.324Z,11.50
2023-04-09T04:19:06.304Z,14.38
2023-04-09T04:21:40.858Z,11.23
2023-04-09T04:24:08.310Z,5.45
2023-04-09T04:26:35.752Z,8.27
2023-04-09T04:29:05.164Z,10.02
2023-04-09T04:31:44.943Z,10.25
2023-04-09T04:34:13.539Z,12.75
2023-04-09T04:36:43.349Z,11.80
2023-04-09T04:39:10.657Z,9.82
2023-04-09T04:44:23.878Z,13.73
2023-04-09T04:46:57.537Z,13.77
2023-04-09T04:49:24.912Z,6.35
2023-04-09T04:51:52.202Z,14.23
2023-04-09T04:54:19.779Z,13.18
2023-04-09T04:56:53.427Z,10.50
2023-04-09T04:59:42.517Z,14.15
2023-04-09T05:02:12.265Z,12.80
2023-04-09T05:04:51.788Z,10.77
2023-04-09T05:07:22.150Z,18.17
2023-04-09T05:09:53.477Z,10.27
2023-04-09T05:12:20.914Z,5.70
2023-04-09T05:14:53.238Z,15.43
2023-04-09T05:17:20.654Z,13.77
2023-04-09T05:19:51.795Z,14.43
2023-04-09T05:22:22.605Z,13.13
2023-04-09T05:24:50.013Z,11.55
2023-04-09T05:27:19.597Z,23.00
2023-04-09T05:29:49.373Z,7.78
2023-04-09T05:32:18.956Z,14.70
2023-04-09T05:34:46.932Z,13.88
2023-04-09T05:37:14.337Z,11.45
2023-04-09T05:39:46.085Z,11.35
2023-04-09T05:42:14.273Z,13.50
2023-04-09T05:44:52.399Z,10.18
2023-04-09T05:47:22.958Z,16.25
2023-04-09T05:50:01.951Z,16.90
2023-04-09T05:52:30.516Z,11.40
2023-04-09T05:54:58.356Z,17.80
2023-04-09T05:57:38.026Z,12.48
2023-04-09T06:00:06.784Z,8.38
2023-04-09T06:02:45.691Z,9.32
2023-04-09T06:05:13.226Z,15.48
2023-04-09T06:07:40.955Z,16.20
2023-04-09T06:10:09.307Z,14.52
2023-04-09T06:12:36.790Z,22.73
2023-04-09T06:15:05.015Z,13.98
2023-04-09T06:17:33.275Z,15.88
2023-04-09T06:20:02.120Z,18.70
2023-04-09T06:22:30.722Z,17.50
2023-04-09T06:24:58.038Z,16.23
2023-04-09T06:27:25.495Z,9.15
2023-04-09T06:29:53.040Z,21.08
2023-04-09T06:32:20.614Z,17.80
2023-04-09T06:34:48.501Z,10.43
2023-04-09T06:37:17.293Z,13.70
2023-04-09T06:39:50.676Z,18.63
2023-04-09T06:42:27.930Z,12.32
2023-04-09T06:45:17.319Z,19.08
2023-04-09T06:47:44.725Z,13.48
2023-04-09T06:50:14.407Z,16.90
2023-04-09T06:52:43.161Z,12.45
2023-04-09T06:55:11.636Z,18.67
2023-04-09T06:57:40.049Z,16.60
2023-04-09T07:00:08.665Z,13.18
2023-04-09T07:02:36.529Z,16.20
2023-04-09T07:05:04.496Z,12.25
2023-04-09T07:07:32.322Z,14.30
2023-04-09T07:10:01.858Z,12.20
2023-04-09T07:12:31.886Z,15.10
2023-04-09T07:14:59.528Z,14.05
2023-04-09T07:17:26.932Z,10.38
2023-04-09T07:19:54.633Z,12.30
2023-04-09T07:22:22.924Z,10.00
2023-04-09T07:24:54.435Z,14.90
2023-04-09T07:27:25.262Z,9.40
2023-04-09T07:29:55.180Z,16.63
2023-04-09T07:32:22.535Z,9.93
2023-04-09T07:34:51.660Z,12.02
2023-04-09T07:37:19.173Z,8.40
2023-04-09T07:39:46.892Z,8.10
2023-04-09T07:42:14.485Z,11.02
2023-04-09T07:44:44.030Z,9.32
2023-04-09T07:47:13.011Z,7.43
2023-04-09T07:49:40.497Z,14.35
2023-04-09T07:52:08.367Z,9.93
2023-04-09T07:54:35.962Z,9.32
2023-04-09T07:57:03.449Z,9.07
2023-04-09T07:59:31.785Z,11.00
2023-04-09T08:02:00.621Z,10.38
2023-04-09T08:04:28.414Z,11.02
2023-04-09T08:06:56.179Z,6.68
2023-04-09T08:09:23.408Z,9.75
2023-04-09T08:11:50.955Z,7.47
2023-04-09T08:14:18.766Z,9.25
2023-04-09T08:16:47.790Z,6.50
2023-04-09T08:19:17.948Z,11.48
2023-04-09T08:21:46.201Z,10.30
2023-04-09T08:24:13.645Z,10.63
2023-04-09T08:26:42.207Z,17.23
2023-04-09T08:29:11.752Z,7.63
2023-04-09T08:31:39.408Z,13.07
2023-04-09T08:34:07.393Z,11.52
2023-04-09T08:36:36.363Z,5.28
2023-04-09T08:39:04.098Z,5.55
2023-04-09T08:41:32.004Z,7.88
2023-04-09T08:43:59.936Z,6.32
2023-04-09T08:46:28.099Z,9.85
2023-04-09T08:48:56.333Z,7.38
2023-04-09T08:51:25.084Z,8.90
2023-04-09T08:53:57.391Z,8.10
2023-04-09T08:56:26.270Z,7.95
2023-04-09T08:58:54.150Z,6.32
2023-04-09T09:01:23.598Z,9.93
2023-04-09T09:03:59.212Z,6.95
2023-04-09T09:06:28.926Z,11.25
2023-04-09T09:09:06.278Z,8.68
2023-04-09T09:11:34.444Z,11.75
2023-04-09T09:14:03.658Z,12.32
2023-04-09T09:16:33.247Z,10.90
2023-04-09T09:19:01.311Z,8.48
2023-04-09T09:21:29.425Z,8.68
2023-04-09T09:23:57.649Z,12.15
2023-04-09T09:26:27.664Z,3.40
2023-04-09T09:28:56.203Z,12.68
2023-04-09T09:31:23.673Z,9.10
2023-04-09T09:33:51.825Z,6.40
2023-04-09T09:36:37.197Z,5.72
2023-04-09T09:41:34.065Z,9.18
2023-04-09T09:44:01.647Z,13.00
2023-04-09T09:46:34.453Z,8.55
2023-04-09T09:49:01.797Z,8.70
2023-04-09T09:51:29.377Z,8.68
2023-04-09T09:53:57.723Z,8.75
2023-04-09T09:56:32.723Z,12.15
2023-04-09T09:59:07.855Z,7.63
2023-04-09T10:01:36.860Z,10.70
2023-04-09T10:04:07.323Z,11.13
2023-04-09T10:06:35.077Z,10.00
2023-04-09T10:09:06.884Z,10.73
2023-04-09T10:11:36.904Z,11.05
2023-04-09T10:14:05.911Z,8.40
2023-04-09T10:16:33.447Z,11.68
2023-04-09T10:19:02.232Z,13.70
2023-04-09T10:21:36.982Z,8.50
2023-04-09T10:24:07.984Z,12.15
2023-04-09T10:26:36.579Z,9.30
2023-04-09T10:29:11.734Z,8.35
2023-04-09T10:31:53.678Z,8.38
2023-04-09T10:34:23.626Z,10.30
2023-04-09T10:36:53.624Z,10.77
2023-04-09T10:39:21.131Z,10.68
2023-04-09T10:41:50.078Z,13.35
2023-04-09T10:44:22.672Z,9.50
2023-04-09T10:46:51.478Z,10.77
2023-04-09T10:49:20.395Z,8.07
2023-04-09T10:51:54.751Z,7.85
2023-04-09T10:54:48.398Z,13.43
2023-04-09T10:57:18.304Z,10.05
2023-04-09T10:59:48.399Z,9.77
2023-04-09T11:02:56.706Z,13.80
2023-04-09T11:05:30.859Z,12.55
2023-04-09T11:08:07.399Z,6.55
2023-04-09T11:10:35.269Z,8.25
2023-04-09T11:13:03.394Z,8.90
2023-04-09T11:15:35.376Z,8.90
2023-04-09T11:18:03.467Z,7.68
2023-04-09T11:20:31.385Z,8.82
2023-04-09T11:23:00.541Z,10.18
2023-04-09T11:25:29.903Z,12.32
2023-04-09T11:27:57.960Z,9.23
2023-04-09T11:30:25.374Z,9.18
2023-04-09T11:32:54.228Z,11.30
2023-04-09T11:35:22.740Z,16.20
2023-04-09T11:37:52.434Z,10.05
2023-04-09T11:40:21.578Z,8.63
2023-04-09T11:42:50.938Z,10.32
2023-04-09T11:45:19.796Z,10.68
2023-04-09T11:47:47.447Z,5.60
2023-04-09T11:50:16.834Z,6.40
2023-04-09T11:52:45.597Z,10.43
2023-04-09T11:55:22.982Z,10.18
2023-04-09T11:57:52.153Z,8.43
2023-04-09T12:00:20.404Z,10.50
2023-04-09T12:02:49.389Z,8.60
2023-04-09T12:05:24.869Z,11.02
2023-04-09T12:07:57.222Z,9.10
2023-04-09T12:10:28.293Z,8.95
2023-04-09T12:12:56.409Z,8.00
2023-04-09T12:15:25.495Z,14.43
2023-04-09T12:17:55.463Z,10.02
2023-04-09T12:20:32.432Z,9.45
2023-04-09T12:23:01.397Z,8.90
2023-04-09T12:25:29.032Z,8.20
2023-04-09T12:27:57.014Z,9.73
2023-04-09T12:30:24.570Z,11.27
2023-04-09T12:32:52.982Z,4.88
2023-04-09T12:35:21.367Z,9.32
2023-04-09T12:37:50.530Z,11.50
2023-04-09T12:40:20.725Z,8.77
2023-04-09T12:42:48.491Z,9.77
2023-04-09T12:45:17.679Z,10.52
2023-04-09T12:47:45.601Z,7.47
2023-04-09T12:50:15.100Z,11.02
2023-04-09T12:52:43.167Z,8.82
2023-04-09T12:55:13.136Z,7.05
2023-04-09T12:57:47.354Z,7.45
2023-04-09T13:00:16.047Z,14.52
2023-04-09T13:02:43.494Z,8.63
2023-04-09T13:05:11.110Z,9.30
2023-04-09T13:07:39.080Z,9.80
2023-04-09T13:10:08.486Z,9.73
2023-04-09T13:12:37.517Z,11.45
2023-04-09T13:15:05.934Z,6.78
2023-04-09T13:17:33.280Z,9.05
2023-04-09T13:20:01.650Z,9.70
2023-04-09T13:22:31.115Z,6.95
2023-04-09T13:24:58.600Z,8.38
2023-04-09T13:27:26.045Z,4.18
2023-04-09T13:29:54.866Z,9.48
2023-04-09T13:32:23.461Z,14.30
2023-04-09T13:34:51.381Z,5.63
2023-04-09T13:37:18.628Z,8.30
2023-04-09T13:39:46.692Z,6.40
2023-04-09T13:42:14.532Z,7.35
2023-04-09T13:44:44.988Z,7.57
2023-04-09T13:47:16.061Z,5.97
2023-04-09T13:49:43.886Z,4.57
2023-04-09T13:52:11.942Z,9.10
2023-04-09T13:54:39.332Z,5.68
2023-04-09T13:57:06.627Z,7.18
2023-04-09T13:59:33.954Z,8.60
2023-04-09T14:02:01.459Z,7.70
2023-04-09T14:04:30.575Z,10.85
2023-04-09T14:06:57.924Z,9.15
2023-04-09T14:09:25.278Z,9.63
2023-04-09T14:11:56.203Z,9.35
2023-04-09T14:14:23.472Z,7.15
2023-04-09T14:16:50.710Z,9.32
2023-04-09T14:19:18.123Z,10.10
2023-04-09T14:21:46.773Z,11.57
2023-04-09T14:24:13.971Z,6.22
2023-04-09T14:26:41.384Z,10.38
2023-04-09T14:29:08.590Z,10.43
2023-04-09T14:31:36.017Z,8.75
2023-04-09T14:34:03.558Z,8.23
2023-04-09T14:36:31.800Z,11.48
2023-04-09T14:39:00.997Z,13.57
2023-04-09T14:41:28.585Z,9.02
2023-04-09T14:43:55.816Z,8.48
2023-04-09T14:46:23.208Z,7.97
2023-04-09T14:48:51.053Z,7.40
2023-04-09T14:51:18.554Z,13.38
2023-04-09T14:53:45.871Z,15.85
2023-04-09T14:56:14.570Z,7.03
2023-04-09T14:58:41.992Z,11.70
2023-04-09T15:01:09.334Z,8.90
2023-04-09T15:03:36.919Z,11.48
2023-04-09T15:06:04.765Z,6.47
2023-04-09T15:08:32.055Z,15.95
2023-04-09T15:10:59.432Z,12.82
2023-04-09T15:13:28.199Z,8.13
2023-04-09T15:15:55.865Z,7.35
2023-04-09T15:18:23.177Z,11.23
2023-04-09T15:20:51.387Z,6.53
2023-04-09T15:23:18.553Z,6.55
2023-04-09T15:25:46.125Z,8.45
2023-04-09T15:28:14.635Z,10.50
2023-04-09T15:30:43.917Z,7.68
2023-04-09T15:33:12.380Z,8.82
2023-04-09T15:35:39.873Z,7.18
2023-04-09T15:38:07.364Z,9.82
2023-04-09T15:40:34.838Z,12.88
2023-04-09T15:43:02.230Z,9.65
2023-04-09T15:45:29.768Z,7.15
2023-04-09T15:47:58.605Z,11.60
2023-04-09T15:50:26.250Z,11.52
2023-04-09T15:52:55.203Z,9.63
2023-04-09T15:55:23.582Z,21.42
2023-04-09T15:57:50.738Z,16.80
2023-04-09T16:00:21.084Z,16.00
2023-04-09T16:02:48.440Z,18.00
2023-04-09T16:05:17.178Z,15.55
2023-04-09T16:07:44.667Z,16.65
2023-04-09T16:10:12.180Z,19.90
2023-04-09T16:12:39.690Z,18.60
2023-04-09T16:15:08.250Z,19.95
2023-04-09T16:17:40.987Z,15.52
2023-04-09T16:20:09.261Z,18.70
2023-04-09T16:22:38.417Z,13.57
2023-04-09T16:25:06.683Z,16.27
2023-04-09T16:27:34.055Z,15.48
2023-04-09T16:30:01.953Z,18.88
2023-04-09T16:32:31.231Z,13.25
2023-04-09T16:35:00.831Z,15.10
2023-04-09T16:37:29.401Z,13.88
2023-04-09T16:39:58.258Z,20.83
2023-04-09T16:42:27.496Z,14.45
2023-04-09T16:44:54.741Z,15.23
2023-04-09T16:47:22.052Z,15.52
2023-04-09T16:49:49.477Z,17.85
2023-04-09T16:52:16.930Z,17.10
2023-04-09T16:54:44.166Z,13.23
2023-04-09T16:57:12.862Z,14.43
2023-04-09T16:59:42.613Z,15.32
2023-04-09T17:02:10.095Z,21.00
2023-04-09T17:04:38.304Z,21.65
2023-04-09T17:07:05.643Z,15.32
2023-04-09T17:09:33.067Z,15.48
2023-04-09T17:12:01.133Z,15.77
2023-04-09T17:14:29.961Z,15.60
2023-04-09T17:16:57.482Z,13.15
2023-04-09T17:19:25.156Z,14.10
2023-04-09T17:21:52.699Z,19.15
2023-04-09T17:24:19.854Z,16.63
2023-04-09T17:26:47.110Z,13.63
2023-04-09T17:29:14.314Z,16.95
2023-04-09T17:31:43.152Z,17.30
2023-04-09T17:34:11.736Z,11.15
2023-04-09T17:36:39.079Z,21.48
2023-04-09T17:39:06.544Z,20.10
2023-04-09T17:41:33.846Z,19.98
2023-04-09T17:44:01.229Z,21.52
2023-04-09T17:46:29.060Z,22.42
2023-04-09T17:48:57.668Z,21.55
2023-04-09T17:51:24.865Z,19.73
2023-04-09T17:53:53.880Z,24.77
2023-04-09T17:56:22.854Z,21.50
2023-04-09T17:58:50.226Z,19.25
2023-04-09T18:01:17.615Z,24.40
2023-04-09T18:03:48.664Z,26.27
2023-04-09T18:06:18.011Z,17.05
2023-04-09T18:08:45.259Z,16.38
2023-04-09T18:11:15.555Z,19.30
2023-04-09T18:13:42.837Z,14.85
2023-04-09T18:16:10.774Z,19.67
2023-04-09T18:18:38.557Z,18.02
2023-04-09T18:21:06.483Z,19.80
2023-04-09T18:23:35.493Z,17.27
2023-04-09T18:26:03.124Z,14.68
2023-04-09T18:28:30.788Z,24.38
2023-04-09T18:30:58.904Z,16.58
2023-04-09T18:33:27.170Z,16.83
2023-04-09T18:35:54.589Z,19.20
2023-04-09T18:38:21.930Z,14.98
2023-04-09T18:40:51.104Z,17.50
2023-04-09T18:43:18.641Z,15.80
2023-04-09T18:45:46.003Z,17.60
2023-04-09T18:48:13.320Z,11.52
2023-04-09T18:50:40.659Z,14.52
2023-04-09T18:53:08.028Z,24.90
2023-04-09T18:55:38.405Z,18.25
2023-04-09T18:58:13.067Z,18.25
2023-04-09T19:00:40.614Z,12.65
2023-04-09T19:03:08.821Z,16.23
2023-04-09T19:05:36.452Z,12.82
2023-04-09T19:08:06.906Z,14.13
2023-04-09T19:10:34.195Z,12.05
2023-04-09T19:13:01.554Z,14.00
2023-04-09T19:15:30.598Z,12.63
2023-04-09T19:17:58.060Z,4.53
2023-04-09T19:20:25.539Z,18.40
2023-04-09T19:22:54.630Z,12.20
2023-04-09T19:25:23.017Z,10.70
2023-04-09T19:27:50.533Z,14.32
2023-04-09T19:30:17.964Z,18.00
2023-04-09T19:32:46.844Z,11.43
2023-04-09T19:35:14.122Z,17.27
2023-04-09T19:37:45.035Z,13.85
2023-04-09T19:40:12.660Z,28.08
2023-04-09T19:42:40.131Z,23.88
2023-04-09T19:45:08.815Z,16.98
2023-04-09T19:47:38.221Z,20.92
2023-04-09T19:50:07.741Z,22.70
2023-04-09T19:52:35.016Z,21.20
2023-04-09T19:55:03.086Z,17.67
2023-04-09T19:57:31.930Z,13.57
2023-04-09T19:59:59.243Z,15.75
2023-04-09T20:02:26.596Z,16.38
2023-04-09T20:04:54.653Z,18.70
2023-04-09T20:07:23.505Z,18.85
2023-04-09T20:09:50.990Z,24.85
2023-04-09T20:12:21.140Z,27.67
2023-04-09T20:14:50.095Z,28.23
2023-04-09T20:17:19.957Z,32.90
2023-04-09T20:19:47.680Z,33.83
2023-04-09T20:22:15.143Z,31.30
2023-04-09T20:24:44.054Z,24.45
2023-04-09T20:27:11.449Z,24.77
2023-04-09T20:29:38.984Z,19.42
2023-04-09T20:32:06.635Z,24.88
2023-04-09T20:34:34.200Z,15.90
2023-04-09T20:37:01.837Z,27.40
2023-04-09T20:39:30.612Z,22.02
2023-04-09T20:41:59.306Z,20.58
2023-04-09T20:44:27.759Z,25.35
2023-04-09T20:46:55.585Z,17.30
2023-04-09T20:49:22.825Z,15.85
2023-04-09T20:51:50.195Z,22.38
2023-04-09T20:54:18.146Z,15.80
2023-04-09T20:56:45.563Z,20.38
2023-04-09T20:59:15.680Z,21.88
2023-04-09T21:01:43.225Z,21.83
2023-04-09T21:04:12.084Z,15.88
2023-04-09T21:06:40.466Z,16.45
2023-04-09T21:09:08.102Z,16.42
2023-04-09T21:11:35.409Z,21.08
2023-04-09T21:14:03.166Z,15.85
2023-04-09T21:16:31.896Z,17.55
2023-04-09T21:18:59.324Z,12.18
2023-04-09T21:21:28.590Z,12.60
2023-04-09T21:23:56.111Z,13.23
2023-04-09T21:26:25.104Z,14.68
2023-04-09T21:28:52.776Z,14.40
2023-04-09T21:31:21.208Z,17.52
2023-04-09T21:33:50.154Z,16.80
2023-04-09T21:36:17.624Z,11.90
2023-04-09T21:38:44.901Z,16.63
2023-04-09T21:41:12.389Z,15.05
2023-04-09T21:43:39.955Z,16.65
2023-04-09T21:46:07.787Z,10.02
2023-04-09T21:48:35.206Z,12.40
2023-04-09T21:51:04.182Z,16.25
2023-04-09T21:53:31.677Z,12.27
2023-04-09T21:55:59.006Z,20.33
2023-04-09T21:58:26.303Z,15.20
2023-04-09T22:00:53.577Z,12.85
2023-04-09T22:03:21.276Z,13.07
2023-04-09T22:05:48.874Z,12.95
2023-04-09T22:08:18.719Z,17.13
2023-04-09T22:10:46.511Z,14.93
2023-04-09T22:13:13.779Z,14.05
2023-04-09T22:15:41.972Z,13.77
2023-04-09T22:18:09.241Z,13.07
2023-04-09T22:20:36.976Z,15.60
2023-04-09T22:23:04.365Z,11.98
2023-04-09T22:25:35.221Z,11.10
2023-04-09T22:28:02.747Z,13.32
2023-04-09T22:30:30.231Z,8.65
2023-04-09T22:32:57.808Z,12.27
2023-04-09T22:35:25.212Z,16.55
2023-04-09T22:37:52.936Z,13.90
2023-04-09T22:40:20.233Z,14.23
2023-04-09T22:42:49.143Z,12.32
2023-04-09T22:45:16.415Z,11.18
2023-04-09T22:47:43.979Z,17.52
2023-04-09T22:50:13.587Z,14.35
2023-04-09T22:52:41.032Z,9.80
2023-04-09T22:55:10.279Z,12.27
2023-04-09T22:57:38.512Z,17.50
2023-04-09T23:00:09.196Z,12.48
2023-04-09T23:02:37.156Z,12.63
2023-04-09T23:05:05.286Z,14.85
2023-04-09T23:07:32.708Z,11.77
2023-04-09T23:10:00.612Z,11.45
2023-04-09T23:12:27.931Z,8.93
2023-04-09T23:14:55.254Z,8.80
2023-04-09T23:17:24.660Z,15.15
2023-04-09T23:19:54.718Z,11.20
2023-04-09T23:22:22.183Z,11.48
2023-04-09T23:24:49.620Z,12.32
2023-04-09T23:27:16.990Z,11.90
2023-04-09T23:29:44.417Z,8.95
2023-04-09T23:32:11.629Z,9.20
2023-04-09T23:34:40.357Z,12.00
2023-04-09T23:37:08.164Z,13.30
2023-04-09T23:39:35.489Z,20.08
2023-04-09T23:42:03.218Z,12.85
2023-04-09T23:44:30.780Z,13.88
2023-04-09T23:46:59.467Z,10.63
2023-04-09T23:49:27.488Z,10.55
2023-04-09T23:51:56.128Z,6.20
2023-04-09T23:54:23.683Z,10.68
2023-04-09T23:56:50.966Z,14.13
2023-04-09T23:59:18.409Z,9.73
